Cisco Butte, California Weather observations

Data are for observation ending at time listed.
 Day   Time    Ave.   Ave.  Ave.  Vector   Max.   Stn.    Total    Solar   Ave.   Snow 
  of    of     Air    Rel.  Wind   Wind    Wind   Baro.  Precip.   Rad.    Soil   Depth
Year   Day     Temp.  Hum.  Speed  Dir.    Gust   Pres.                    Temp.       
2014   (PST)    F      %     mph   deg.    mph     mb.     in.     W/m2     F      in. 
---------------------------------------------------------------------------------------  
 353    0:00   31.7    86    1.7   308      4.2   825.0    0.00       0    999.0  159.6
 353    0:10   31.3    89    2.7    60      6.0   825.0    0.00       0    999.0  159.6
 353    0:20   31.3    90    8.1   102     14.4   824.0    0.00       0    999.0  159.6
 353    0:30   31.3    91    3.3   114      9.7   824.0    0.00       0    999.0  159.6
 353    0:40   31.2    91    4.6   116     11.0   824.0    0.00       0    999.0  159.6
 353    0:50   31.0    90    8.7   101     18.8   824.0    0.00       0    999.0  159.6
 353    1:00   31.0    90    5.0   322     10.7   824.0    0.00       0    999.0  159.6
 353    1:10   31.1    90    3.7   345     11.3   824.0    0.00       0    999.0  159.6
 353    1:20   31.1    91    3.1    37     11.3   824.0    0.00       0    999.0  159.6
 353    1:30   31.0    92    5.6   184     15.3   824.0    0.00       0    999.0  159.6
 353    1:40   31.2    91    7.8   164     21.1   824.0    0.00       0    999.0  159.6
 353    1:50   31.3    87    7.0   190     25.1   824.0    0.00       0    999.0  159.6
 353    2:00   31.7    84    8.0   196     21.5   824.0    0.00       0    999.0  159.6
 353    2:10   31.9    80    6.3   195     17.4   824.0    0.00       0    999.0  159.6
 353    2:20   32.0    81    8.3   190     25.1   824.0    0.00       0    999.0  159.5
 353    2:30   32.1    81    9.8   186     22.4   824.0    0.00       0    999.0  159.6
 353    2:40   32.2    80    9.5   169     21.9   824.0    0.00       0    999.0  159.6
 353    2:50   32.4    78    8.1   169     21.9   824.0    0.00       0    999.0  159.5
 353    3:00   32.8    73    8.3   183     20.0   824.0    0.00       0    999.0  130.3
 353    3:10   33.0    70    5.7   224     18.6   824.0    0.00       0    999.0  115.4
 353    3:20   32.9    69    5.6   217     16.1   824.0    0.00       0    999.0  159.1
 353    3:30   32.8    70    6.4   238     16.5   824.0    0.00       0    999.0  159.4
 353    3:40   32.7    72    6.0   250     12.9   824.0    0.00       0    999.0  159.0
 353    3:50   32.8    72    7.7   222     20.5   824.0    0.00       0    999.0  159.1
 353    4:00   32.4    75    7.3   238     20.8   824.0    0.00       0    999.0  159.1
 353    4:10   31.1    78    6.2   229     14.7   824.0    0.00       0    999.0  159.5
 353    4:20   31.7    75    6.2   180     19.9   823.0    0.00       0    999.0  159.4
 353    4:30   32.2    73    7.6   182     21.3   823.0    0.00       0    999.0  159.3
 353    4:40   32.1    72    7.9   206     20.8   823.0    0.00       0    999.0  159.3
 353    4:50   31.6    76    9.1   206     20.5   823.0    0.00       0    999.0  159.5
 353    5:00   31.5    76    7.7   269     17.4   824.0    0.00       0    999.0  159.5
 353    5:10   31.5    76   12.2   270     21.7   824.0    0.00       0    999.0  159.2
 353    5:20   30.8    79    8.1   261     16.6   824.0    0.00       0    999.0  159.5
 353    5:30   31.2    78    5.8   236     14.5   824.0    0.00       0    999.0  159.6
 353    5:40   31.0    80    6.7   200     20.0   823.0    0.00       0    999.0  159.6
 353    5:50   31.2    79   10.0   161     22.3   823.0    0.00       0    999.0  159.6
 353    6:00   31.3    80    9.2   166     22.9   823.0    0.00       0    999.0  159.6
 353    6:10   31.1    81   10.2   179     21.6   823.0    0.00       0    999.0  159.6
 353    6:20   30.7    84    8.7   191     22.8   823.0    0.00       0    999.0  159.6
 353    6:30   30.8    81    9.2   212     21.3   823.0    0.00       0    999.0  159.6
 353    6:40   31.6    74    9.2   210     26.8   823.0    0.00       0    999.0  159.5
 353    6:50   31.9    72    8.7   196     21.3   823.0    0.00       0    999.0  159.2
 353    7:00   31.6    76    9.1   196     17.8   823.0    0.00       0    999.0  159.5
 353    7:10   31.4    78    8.5   178     23.7   823.0    0.00       0    999.0  159.6
 353    7:20   31.8    77   10.2   189     22.1   823.0    0.00       2    999.0  159.6
 353    7:30   31.7    80   10.2   204     24.2   823.0    0.00       2    999.0  159.6
 353    7:40   31.3    83    9.8   174     22.6   823.0    0.00       8    999.0  159.6
 353    7:50   31.7    81    9.2   195     24.8   823.0    0.00      17    999.0  159.6
 353    8:00   31.9    80    7.9   192     19.5   823.0    0.00      17    999.0  159.6
 353    8:10   31.4    83   11.2   167     20.2   823.0    0.00      24    999.0  159.6
 353    8:20   31.4    85   10.5   161     21.5   823.0    0.00      21    999.0  159.6
 353    8:30   31.6    85    9.5   169     22.7   823.0    0.00      13    999.0  159.6
 353    8:40   31.7    86    8.9   159     21.4   823.0    0.00      15    999.0  159.6
 353    8:50   31.5    88   10.2   171     23.2   824.0    0.00      19    999.0  159.6
 353    9:00   31.5    87    9.8   167     22.3   824.0    0.00      15    999.0  159.6
 353    9:10   30.9    90    7.7   176     17.0   824.0    0.00      14    999.0  159.6
 353    9:20   30.6    92   10.2   169     23.9   824.0    0.00      16    999.0  159.6
 353    9:30   30.5    93    8.9   168     20.8   824.0    0.00      15    999.0  159.6
 353    9:40   30.7    93   11.0   163     22.7   824.0    0.00       9    999.0  159.6
 353    9:50   30.8    94    6.6   170     13.4   824.0    0.00      13    999.0  159.4
 353   10:00   30.8    94    7.7   178     16.4   824.0    0.00      12    999.0  159.6
 353   10:10   30.8    94    5.1   187     15.1   824.0    0.00      16    999.0  159.6
 353   10:20   30.9    95    9.8   262     18.0   825.0    0.00      17    999.0  159.6
 353   10:30   30.3    95    9.9   271     20.7   825.0    0.00      18    999.0  159.6
 353   10:40   30.2    95    4.6   262     14.2   825.0    0.00      25    999.0  159.6
 353   10:50   30.3    95    6.1   267     11.0   825.0    0.00      29    999.0  159.6
 353   11:00   30.4    96    4.1   261      9.0   825.0    0.00      34    999.0  159.7
 353   11:10   30.6    96    7.8   262     16.6   825.0    0.00      36    999.0  160.5
 353   11:20   30.6    96    7.4   269     15.1   825.0    0.00      41    999.0  159.6
 353   11:30   30.7    96    3.6   241     12.3   825.0    0.00      49    999.0  159.6
 353   11:40   30.7    96    5.8   254     15.3   825.0    0.00      40    999.0  159.5
 353   11:50   30.5    96    8.0   264     14.2   825.0    0.00      32    999.0  159.5
 353   12:00   30.3    96    8.3   272     14.7   825.0    0.00      24    999.0  159.6
 353   12:10   29.9    96    8.8   266     16.0   825.0    0.00      15    999.0  159.6
 353   12:20   29.7    96    4.7   238     14.2   825.0    0.00      25    999.0  159.6
 353   12:30   29.8    96    4.8   240      8.7   825.0    0.00      32    999.0  159.4
 353   12:40   30.2    96    5.8   247     11.2   824.0    0.00      50    999.0  159.5

Return to Cisco Butte graphs page.


Western Regional Climate Center,wrcc@dri.edu